createdAt,value
2017-08-25T00:00:10.373Z,17.57
2017-08-25T00:00:50.883Z,17.65
2017-08-25T00:01:31.338Z,17.63
2017-08-25T00:02:11.784Z,17.53
2017-08-25T00:02:52.364Z,17.54
2017-08-25T00:03:32.768Z,17.53
2017-08-25T00:04:13.157Z,17.51
2017-08-25T00:04:53.475Z,17.45
2017-08-25T00:05:33.956Z,17.46
2017-08-25T00:06:14.300Z,17.42
2017-08-25T00:06:54.756Z,17.46
2017-08-25T00:07:35.284Z,17.45
2017-08-25T00:08:15.668Z,17.39
2017-08-25T00:08:56.093Z,17.38
2017-08-25T00:09:36.769Z,17.36
2017-08-25T00:10:17.385Z,17.36
2017-08-25T00:17:51.872Z,17.35
2017-08-25T00:19:50.319Z,17.38
2017-08-25T00:23:48.940Z,17.36
2017-08-25T00:24:46.795Z,17.39
2017-08-25T00:25:44.891Z,17.33
2017-08-25T00:26:45.020Z,17.24
2017-08-25T00:27:43.882Z,17.39
2017-08-25T00:28:42.004Z,17.3
2017-08-25T00:29:38.579Z,17.27
2017-08-25T00:30:35.098Z,17.28
2017-08-25T00:31:29.368Z,17.25
2017-08-25T00:32:25.144Z,17.24
2017-08-25T00:33:23.941Z,17.21
2017-08-25T00:34:19.015Z,17.27
2017-08-25T00:35:15.843Z,17.21
2017-08-25T00:36:09.941Z,17.18
2017-08-25T00:37:05.361Z,17.17
2017-08-25T00:38:04.759Z,17.17
2017-08-25T00:39:00.745Z,17.17
2017-08-25T00:39:58.551Z,17.17
2017-08-25T00:40:56.302Z,17.1
2017-08-25T00:41:51.305Z,17.12
2017-08-25T00:42:50.114Z,17.17
2017-08-25T00:43:50.019Z,17.1
2017-08-25T00:44:46.678Z,17.15
2017-08-25T00:45:46.198Z,17.1
2017-08-25T00:46:44.114Z,17.18
2017-08-25T00:47:41.546Z,17.06
2017-08-25T00:48:44.227Z,17.14
2017-08-25T00:49:47.461Z,17.14
2017-08-25T00:50:51.122Z,17.1
2017-08-25T00:51:50.953Z,17.15
2017-08-25T00:52:50.838Z,17.12
2017-08-25T00:53:52.449Z,17.1
2017-08-25T00:54:52.390Z,17.09
2017-08-25T00:55:52.502Z,17.09
2017-08-25T00:56:53.585Z,17.1
2017-08-25T00:57:51.489Z,17.06
2017-08-25T00:58:53.005Z,16.98
2017-08-25T00:59:51.583Z,16.96
2017-08-25T01:00:52.070Z,17
2017-08-25T01:01:51.491Z,17
2017-08-25T01:02:51.696Z,16.96
2017-08-25T01:03:51.568Z,16.98
2017-08-25T01:04:52.699Z,16.84
2017-08-25T01:05:52.592Z,16.9
2017-08-25T01:06:54.399Z,16.84
2017-08-25T01:07:52.715Z,16.75
2017-08-25T01:08:51.454Z,16.8
2017-08-25T01:09:50.487Z,16.73
2017-08-25T01:10:52.296Z,16.7
2017-08-25T01:11:50.003Z,16.7
2017-08-25T01:12:52.200Z,16.73
2017-08-25T01:13:52.050Z,16.72
2017-08-25T01:14:49.560Z,16.6
2017-08-25T01:15:52.588Z,16.63
2017-08-25T01:16:53.548Z,16.55
2017-08-25T01:17:55.766Z,16.62
2017-08-25T01:18:57.461Z,16.67
2017-08-25T01:19:56.745Z,16.6
2017-08-25T01:20:56.862Z,16.55
2017-08-25T01:21:57.131Z,16.54
2017-08-25T01:22:53.290Z,16.52
2017-08-25T01:23:52.295Z,16.48
2017-08-25T01:24:54.646Z,16.48
2017-08-25T01:25:55.922Z,16.52
2017-08-25T01:26:55.477Z,16.47
2017-08-25T01:27:53.939Z,16.47
2017-08-25T01:29:01.258Z,16.48
2017-08-25T01:30:01.520Z,16.47
2017-08-25T01:30:58.887Z,16.44
2017-08-25T01:33:29.867Z,16.48
2017-08-25T01:34:09.682Z,16.4
2017-08-25T01:34:50.027Z,16.4
2017-08-25T01:35:30.604Z,16.44
2017-08-25T01:36:11.057Z,16.47
2017-08-25T01:36:51.461Z,16.42
2017-08-25T01:37:31.976Z,16.32
2017-08-25T01:38:12.428Z,16.29
2017-08-25T01:38:52.852Z,16.34
2017-08-25T01:39:33.460Z,16.37
2017-08-25T01:40:14.006Z,16.4
2017-08-25T01:40:54.324Z,16.37
2017-08-25T01:41:34.821Z,16.34
2017-08-25T01:42:15.203Z,16.36
2017-08-25T01:42:55.652Z,16.3
2017-08-25T01:43:36.124Z,16.36
2017-08-25T01:44:16.495Z,16.26
2017-08-25T01:44:57.017Z,16.26
2017-08-25T01:45:37.453Z,16.27
2017-08-25T01:46:18.057Z,16.26
2017-08-25T01:46:58.677Z,16.34
2017-08-25T01:47:39.034Z,16.27
2017-08-25T01:48:19.458Z,16.29
2017-08-25T01:48:59.924Z,16.29
2017-08-25T01:49:40.342Z,16.3
2017-08-25T01:50:20.908Z,16.26
2017-08-25T01:51:01.243Z,16.36
2017-08-25T01:51:41.779Z,16.37
2017-08-25T01:52:22.389Z,16.37
2017-08-25T01:53:02.942Z,16.37
2017-08-25T01:53:43.307Z,16.37
2017-08-25T01:54:23.796Z,16.4
2017-08-25T01:55:04.106Z,16.34
2017-08-25T01:55:44.527Z,16.33
2017-08-25T01:56:25.249Z,16.32
2017-08-25T01:57:05.690Z,16.34
2017-08-25T01:57:46.143Z,16.42
2017-08-25T01:58:26.582Z,16.32
2017-08-25T01:59:07.202Z,16.29
2017-08-25T01:59:47.614Z,16.41
2017-08-25T02:00:28.051Z,16.47
2017-08-25T02:01:08.566Z,16.44
2017-08-25T02:01:48.921Z,16.41
2017-08-25T02:02:29.319Z,16.48
2017-08-25T02:03:09.807Z,16.44
2017-08-25T02:03:50.202Z,16.4
2017-08-25T02:04:30.558Z,16.44
2017-08-25T02:05:10.964Z,16.4
2017-08-25T02:05:51.420Z,16.41
2017-08-25T02:06:31.756Z,16.47
2017-08-25T02:07:12.218Z,16.34
2017-08-25T02:07:52.745Z,16.34
2017-08-25T02:08:33.098Z,16.27
2017-08-25T02:09:13.644Z,16.18
2017-08-25T02:09:54.049Z,16.22
2017-08-25T02:10:34.488Z,16.18
2017-08-25T02:11:14.973Z,16.03
2017-08-25T02:11:55.578Z,16.04
2017-08-25T02:12:35.948Z,15.95
2017-08-25T02:13:16.361Z,15.92
2017-08-25T02:13:56.965Z,15.92
2017-08-25T02:14:37.348Z,15.81
2017-08-25T02:15:17.790Z,15.88
2017-08-25T02:15:58.237Z,15.84
2017-08-25T02:16:38.618Z,15.81
2017-08-25T02:17:19.047Z,15.84
2017-08-25T02:17:59.606Z,15.81
2017-08-25T02:18:40.050Z,15.78
2017-08-25T02:19:20.461Z,15.84
2017-08-25T02:20:00.947Z,15.84
2017-08-25T02:20:42.277Z,15.86
2017-08-25T02:21:22.576Z,15.85
2017-08-25T02:22:02.989Z,15.81
2017-08-25T02:22:43.470Z,15.85
2017-08-25T02:23:23.882Z,15.8
2017-08-25T02:24:04.181Z,15.85
2017-08-25T02:24:44.792Z,15.8
2017-08-25T02:25:25.179Z,15.84
2017-08-25T02:26:05.593Z,15.85
2017-08-25T02:26:46.063Z,15.84
2017-08-25T02:27:26.868Z,15.85
2017-08-25T02:28:07.324Z,15.85
2017-08-25T02:28:47.798Z,15.84
2017-08-25T02:29:28.370Z,15.84
2017-08-25T02:30:08.981Z,15.81
2017-08-25T02:30:49.214Z,15.81
2017-08-25T02:31:29.853Z,15.85
2017-08-25T02:32:10.286Z,15.78
2017-08-25T02:32:50.903Z,15.84
2017-08-25T02:33:31.336Z,15.71
2017-08-25T02:34:11.750Z,15.74
2017-08-25T02:41:16.126Z,15.51
2017-08-25T02:46:19.079Z,15.6
2017-08-25T02:47:14.913Z,15.62
2017-08-25T02:48:08.609Z,15.48
2017-08-25T02:49:05.677Z,15.59
2017-08-25T02:50:02.466Z,15.62
2017-08-25T02:50:58.776Z,15.49
2017-08-25T02:51:54.141Z,15.62
2017-08-25T02:52:49.782Z,15.53
2017-08-25T02:53:44.591Z,15.52
2017-08-25T02:54:40.519Z,15.48
2017-08-25T02:55:38.193Z,15.52
2017-08-25T02:56:38.606Z,15.51
2017-08-25T02:57:40.540Z,15.51
2017-08-25T02:58:38.799Z,15.6
2017-08-25T02:59:36.456Z,15.59
2017-08-25T03:00:39.665Z,15.67
2017-08-25T03:02:19.695Z,15.68
2017-08-25T03:02:59.760Z,15.62
2017-08-25T03:03:40.162Z,15.56
2017-08-25T03:04:20.488Z,15.66
2017-08-25T03:05:01.015Z,15.6
2017-08-25T03:05:41.780Z,15.59
2017-08-25T03:06:22.161Z,15.58
2017-08-25T03:07:02.610Z,15.55
2017-08-25T03:07:43.044Z,15.49
2017-08-25T03:08:23.427Z,15.48
2017-08-25T03:09:03.826Z,15.49
2017-08-25T03:09:44.300Z,15.58
2017-08-25T03:10:24.743Z,15.51
2017-08-25T03:11:05.148Z,15.51
2017-08-25T03:11:45.561Z,15.51
2017-08-25T03:12:26.005Z,15.53
2017-08-25T03:13:06.339Z,15.41
2017-08-25T03:13:46.886Z,15.41
2017-08-25T03:14:27.318Z,15.44
2017-08-25T03:15:07.662Z,15.38
2017-08-25T03:15:48.142Z,15.41
2017-08-25T03:16:28.575Z,15.37
2017-08-25T03:17:08.986Z,15.44
2017-08-25T03:17:49.367Z,15.53
2017-08-25T03:18:30.027Z,15.48
2017-08-25T03:19:10.442Z,15.48
2017-08-25T03:19:51.106Z,15.48
2017-08-25T03:20:31.533Z,15.55
2017-08-25T03:21:11.868Z,15.56
2017-08-25T03:21:52.317Z,15.55
2017-08-25T03:22:32.678Z,15.52
2017-08-25T03:23:13.051Z,15.52
2017-08-25T03:23:53.471Z,15.49
2017-08-25T03:24:33.899Z,15.52
2017-08-25T03:25:14.303Z,15.51
2017-08-25T03:25:54.722Z,15.6
2017-08-25T03:26:35.094Z,15.62
2017-08-25T03:27:15.599Z,15.64
2017-08-25T03:27:55.997Z,15.58
2017-08-25T03:28:36.295Z,15.64
2017-08-25T03:29:16.762Z,15.6
2017-08-25T03:29:57.288Z,15.56
2017-08-25T03:30:37.698Z,15.56
2017-08-25T03:31:18.289Z,15.55
2017-08-25T03:31:58.619Z,15.52
2017-08-25T03:32:38.992Z,15.43
2017-08-25T03:33:19.310Z,15.43
2017-08-25T03:33:59.839Z,15.44
2017-08-25T03:34:40.271Z,15.44
2017-08-25T03:35:20.657Z,15.44
2017-08-25T03:36:01.079Z,15.4
2017-08-25T03:36:41.540Z,15.46
2017-08-25T03:37:21.990Z,15.37
2017-08-25T03:38:02.286Z,15.41
2017-08-25T03:38:42.723Z,15.44
2017-08-25T03:39:23.107Z,15.34
2017-08-25T03:40:03.812Z,15.28
2017-08-25T03:40:44.121Z,15.33
2017-08-25T03:41:24.515Z,15.31
2017-08-25T03:42:05.023Z,15.38
2017-08-25T03:42:45.367Z,15.25
2017-08-25T03:43:25.788Z,15.3
2017-08-25T03:44:06.260Z,15.3
2017-08-25T03:44:46.720Z,15.33
2017-08-25T03:45:26.988Z,15.28
2017-08-25T03:46:08.249Z,15.38
2017-08-25T03:46:48.562Z,15.35
2017-08-25T03:47:29.071Z,15.35
2017-08-25T03:48:09.465Z,15.33
2017-08-25T03:48:49.898Z,15.38
2017-08-25T03:49:30.307Z,15.3
2017-08-25T03:50:10.671Z,15.37
2017-08-25T03:50:51.107Z,15.4
2017-08-25T03:51:31.530Z,15.38
2017-08-25T03:52:11.895Z,15.37
2017-08-25T03:52:52.343Z,15.37
2017-08-25T03:53:32.951Z,15.35
2017-08-25T03:54:13.038Z,15.44
2017-08-25T03:54:53.505Z,15.37
2017-08-25T03:55:33.980Z,15.4
2017-08-25T03:56:14.383Z,15.38
2017-08-25T03:56:54.911Z,15.41
2017-08-25T03:57:35.233Z,15.37
2017-08-25T03:58:15.776Z,15.46
2017-08-25T03:58:56.148Z,15.43
2017-08-25T03:59:36.524Z,15.28
2017-08-25T04:00:17.188Z,15.43
2017-08-25T04:00:57.404Z,15.38
2017-08-25T04:01:37.940Z,15.44
2017-08-25T04:02:18.217Z,15.37
2017-08-25T04:02:58.813Z,15.43
2017-08-25T04:03:39.408Z,15.38
2017-08-25T04:04:19.691Z,15.3
2017-08-25T04:05:00.100Z,15.38
2017-08-25T04:05:40.687Z,15.37
2017-08-25T04:06:21.073Z,15.41
2017-08-25T04:07:01.560Z,15.3
2017-08-25T04:07:42.002Z,15.38
2017-08-25T04:08:22.561Z,15.37
2017-08-25T04:09:02.988Z,15.37
2017-08-25T04:09:43.322Z,15.33
2017-08-25T04:10:23.972Z,15.44
2017-08-25T04:11:04.303Z,15.43
2017-08-25T04:11:44.694Z,15.4
2017-08-25T04:12:25.086Z,15.4
2017-08-25T04:13:05.559Z,15.34
2017-08-25T04:13:45.920Z,15.44
2017-08-25T04:14:26.397Z,15.34
2017-08-25T04:15:06.808Z,15.38
2017-08-25T04:15:47.432Z,15.35
2017-08-25T04:16:27.699Z,15.44
2017-08-25T04:17:08.031Z,15.46
2017-08-25T04:17:48.507Z,15.38
2017-08-25T04:18:29.021Z,15.38
2017-08-25T04:19:09.430Z,15.44
2017-08-25T04:19:49.874Z,15.38
2017-08-25T04:20:30.268Z,15.44
2017-08-25T04:21:10.697Z,15.43
2017-08-25T04:21:51.064Z,15.38
2017-08-25T04:22:31.455Z,15.44
2017-08-25T04:23:12.046Z,15.41
2017-08-25T04:23:52.570Z,15.4
2017-08-25T04:24:32.857Z,15.44
2017-08-25T04:25:13.179Z,15.38
2017-08-25T04:25:53.654Z,15.41
2017-08-25T04:26:34.100Z,15.43
2017-08-25T04:27:14.455Z,15.43
2017-08-25T04:27:54.997Z,15.49
2017-08-25T04:28:35.371Z,15.44
2017-08-25T04:29:15.817Z,15.41
2017-08-25T04:29:56.489Z,15.38
2017-08-25T04:30:36.671Z,15.37
2017-08-25T04:31:17.087Z,15.43
2017-08-25T04:31:57.624Z,15.44
2017-08-25T04:32:38.067Z,15.52
2017-08-25T04:33:18.574Z,15.49
2017-08-25T04:33:58.959Z,15.59
2017-08-25T04:34:39.315Z,15.53
2017-08-25T04:35:19.765Z,15.56
2017-08-25T04:36:00.145Z,15.56
2017-08-25T04:36:40.622Z,15.55
2017-08-25T04:37:21.009Z,15.48
2017-08-25T04:38:01.343Z,15.56
2017-08-25T04:38:41.887Z,15.48
2017-08-25T04:39:22.258Z,15.59
2017-08-25T04:40:02.708Z,15.59
2017-08-25T04:40:43.215Z,15.52
2017-08-25T04:41:23.687Z,15.64
2017-08-25T04:42:03.987Z,15.56
2017-08-25T04:42:44.486Z,15.48
2017-08-25T04:43:24.869Z,15.56
2017-08-25T04:44:05.267Z,15.64
2017-08-25T04:44:45.693Z,15.56
2017-08-25T04:45:26.078Z,15.51
2017-08-25T04:46:06.425Z,15.55
2017-08-25T04:46:46.972Z,15.51
2017-08-25T04:47:27.376Z,15.48
2017-08-25T04:48:07.950Z,15.58
2017-08-25T04:48:48.305Z,15.51
2017-08-25T04:49:28.669Z,15.48
2017-08-25T04:50:09.151Z,15.51
2017-08-25T04:50:49.530Z,15.56
2017-08-25T04:51:30.011Z,15.48
2017-08-25T04:52:10.348Z,15.52
2017-08-25T04:52:50.707Z,15.46
2017-08-25T04:53:31.243Z,15.52
2017-08-25T04:54:11.807Z,15.58
2017-08-25T04:54:54.984Z,15.51
2017-08-25T04:55:35.094Z,15.52
2017-08-25T04:56:15.610Z,15.6
2017-08-25T04:56:55.894Z,15.59
2017-08-25T04:57:36.336Z,15.59
2017-08-25T04:58:16.808Z,15.64
2017-08-25T04:58:57.176Z,15.53
2017-08-25T04:59:37.949Z,15.6
2017-08-25T05:00:22.979Z,15.67
2017-08-25T05:01:03.144Z,15.6
2017-08-25T05:01:43.533Z,15.66
2017-08-25T05:02:23.976Z,15.62
2017-08-25T05:03:04.617Z,15.64
2017-08-25T05:03:44.848Z,15.68
2017-08-25T05:04:25.383Z,15.7
2017-08-25T05:05:05.892Z,15.66
2017-08-25T05:05:46.301Z,15.66
2017-08-25T05:06:26.777Z,15.71
2017-08-25T05:07:07.203Z,15.66
2017-08-25T05:07:47.548Z,15.66
2017-08-25T05:08:28.237Z,15.71
2017-08-25T05:09:08.812Z,15.67
2017-08-25T05:09:49.169Z,15.76
2017-08-25T05:10:29.689Z,15.76
2017-08-25T05:11:10.831Z,15.84
2017-08-25T05:11:51.335Z,15.77
2017-08-25T05:12:31.952Z,15.76
2017-08-25T05:13:12.954Z,15.71
2017-08-25T05:13:53.201Z,15.8
2017-08-25T05:14:33.680Z,15.84
2017-08-25T05:15:14.111Z,15.84
2017-08-25T05:15:54.664Z,15.88
2017-08-25T05:16:35.168Z,15.86
2017-08-25T05:17:15.602Z,15.93
2017-08-25T05:17:56.020Z,15.93
2017-08-25T05:22:56.912Z,15.95
2017-08-25T05:24:05.147Z,15.96
2017-08-25T05:25:08.723Z,15.92
2017-08-25T05:26:12.346Z,16.04
2017-08-25T05:27:11.788Z,16.04
2017-08-25T05:28:15.975Z,16.08
2017-08-25T05:29:18.993Z,16.13
2017-08-25T05:30:14.107Z,16.22
2017-08-25T05:31:10.500Z,16.18
2017-08-25T05:32:03.334Z,16.3
2017-08-25T05:32:44.062Z,16.34
2017-08-25T05:33:24.491Z,16.34
2017-08-25T05:34:04.940Z,16.3
2017-08-25T05:34:45.293Z,16.42
2017-08-25T05:35:25.693Z,16.52
2017-08-25T05:36:06.260Z,16.52
2017-08-25T05:36:46.653Z,16.54
2017-08-25T05:37:27.136Z,16.5
2017-08-25T05:38:09.356Z,16.54
2017-08-25T05:39:50.707Z,16.72
2017-08-25T05:40:28.426Z,16.6
2017-08-25T05:41:08.787Z,16.69
2017-08-25T05:41:49.318Z,16.78
2017-08-25T05:42:29.624Z,16.78
2017-08-25T05:43:10.442Z,16.81
2017-08-25T05:43:50.964Z,16.92
2017-08-25T05:44:31.511Z,16.96
2017-08-25T05:45:11.881Z,17
2017-08-25T05:45:52.516Z,17.03
2017-08-25T05:46:32.902Z,16.95
2017-08-25T05:47:13.377Z,16.99
2017-08-25T05:47:53.771Z,16.96
2017-08-25T05:48:34.144Z,17.06
2017-08-25T05:49:14.544Z,17.05
2017-08-25T05:49:55.168Z,17
2017-08-25T05:50:35.605Z,17
2017-08-25T05:51:16.201Z,17.06
2017-08-25T05:51:56.555Z,17.14
2017-08-25T05:52:37.012Z,17.21
2017-08-25T05:53:17.380Z,17.22
2017-08-25T05:53:57.888Z,17.27
2017-08-25T05:54:38.241Z,17.4
2017-08-25T05:55:18.602Z,17.42
2017-08-25T05:55:59.590Z,17.4
2017-08-25T05:56:39.992Z,17.4
2017-08-25T05:57:20.547Z,17.36
2017-08-25T05:58:01.125Z,17.27
2017-08-25T05:58:41.441Z,17.35
2017-08-25T05:59:21.936Z,17.33
2017-08-25T06:00:02.400Z,17.32
2017-08-25T06:00:42.652Z,17.33
2017-08-25T06:01:23.917Z,17.3
2017-08-25T06:02:03.901Z,17.3
2017-08-25T06:02:44.250Z,17.33
2017-08-25T06:03:24.697Z,17.35
2017-08-25T06:04:05.224Z,17.35
2017-08-25T06:04:46.087Z,17.39
2017-08-25T06:05:26.426Z,17.45
2017-08-25T06:06:07.113Z,17.49
2017-08-25T06:06:47.804Z,17.47
2017-08-25T06:07:28.373Z,17.55
2017-08-25T06:08:08.651Z,17.63
2017-08-25T06:08:49.009Z,17.73
2017-08-25T06:09:29.452Z,17.83
2017-08-25T06:10:10.758Z,18.02
2017-08-25T06:10:51.973Z,18.14
2017-08-25T06:11:32.445Z,18.31
2017-08-25T06:12:12.606Z,18.49
2017-08-25T06:12:53.691Z,18.65
2017-08-25T06:13:34.205Z,18.69
2017-08-25T06:14:15.367Z,18.82
2017-08-25T06:14:55.996Z,18.99
2017-08-25T06:15:36.637Z,19.07
2017-08-25T06:16:16.910Z,19.06
2017-08-25T06:16:59.985Z,18.99
2017-08-25T06:17:40.000Z,18.93
2017-08-25T06:18:20.444Z,18.86
2017-08-25T06:19:00.864Z,18.91
2017-08-25T06:19:41.346Z,18.97
2017-08-25T06:20:21.819Z,18.96
2017-08-25T06:21:03.418Z,19.07
2017-08-25T06:21:43.553Z,19.2
2017-08-25T06:22:23.828Z,19.3
2017-08-25T06:23:04.538Z,19.4
2017-08-25T06:23:44.847Z,19.45
2017-08-25T06:24:25.211Z,19.38
2017-08-25T06:25:05.588Z,19.31
2017-08-25T06:25:46.023Z,19.32
2017-08-25T06:26:26.486Z,19.28
2017-08-25T06:27:07.332Z,19.23
2017-08-25T06:27:48.066Z,19.2
2017-08-25T06:28:28.547Z,19.13
2017-08-25T06:29:09.011Z,19.16
2017-08-25T06:29:49.558Z,19.1
2017-08-25T06:30:29.984Z,19.06
2017-08-25T06:31:10.489Z,19.1
2017-08-25T06:31:50.874Z,19.23
2017-08-25T06:32:31.246Z,19.3
2017-08-25T06:33:11.654Z,19.28
2017-08-25T06:33:52.041Z,19.3
2017-08-25T06:34:32.573Z,19.3
2017-08-25T06:35:13.105Z,19.31
2017-08-25T06:35:53.379Z,19.32
2017-08-25T06:36:33.820Z,19.24
2017-08-25T06:37:14.305Z,19.27
2017-08-25T06:37:54.712Z,19.24
2017-08-25T06:38:35.185Z,19.23
2017-08-25T06:39:15.541Z,19.2
2017-08-25T06:39:55.961Z,19.31
2017-08-25T06:40:36.445Z,19.28
2017-08-25T06:41:17.245Z,19.24
2017-08-25T06:41:57.766Z,19.38
2017-08-25T06:43:56.898Z,19.47
2017-08-25T06:45:41.283Z,19.43
2017-08-25T06:46:41.562Z,19.46
2017-08-25T06:47:47.593Z,19.49
2017-08-25T06:51:39.297Z,19.24
2017-08-25T06:52:19.823Z,19.15
2017-08-25T06:53:00.193Z,19.17
2017-08-25T06:53:40.855Z,19.3
2017-08-25T06:54:21.252Z,19.32
2017-08-25T06:55:01.720Z,19.42
2017-08-25T06:55:42.376Z,19.52
2017-08-25T06:56:22.945Z,19.65
2017-08-25T06:57:03.326Z,19.61
2017-08-25T06:57:44.070Z,19.67
2017-08-25T06:58:24.532Z,19.75
2017-08-25T06:59:05.111Z,19.89
2017-08-25T07:00:50.622Z,20.05
2017-08-25T07:01:32.813Z,20.13
2017-08-25T07:02:13.291Z,20.19
2017-08-25T07:02:53.715Z,20.31
2017-08-25T07:03:34.229Z,20.26
2017-08-25T07:04:14.688Z,20.35
2017-08-25T07:04:55.100Z,20.61
2017-08-25T07:05:35.726Z,20.73
2017-08-25T07:06:16.163Z,20.81
2017-08-25T07:06:56.591Z,20.96
2017-08-25T07:07:37.044Z,21.01
2017-08-25T07:08:17.440Z,21.16
2017-08-25T07:08:58.350Z,21.31
2017-08-25T07:09:38.838Z,21.37
2017-08-25T07:10:19.185Z,21.51
2017-08-25T07:10:59.611Z,21.53
2017-08-25T07:11:40.074Z,21.63
2017-08-25T07:12:20.504Z,21.63
2017-08-25T07:13:02.388Z,21.56
2017-08-25T07:13:42.427Z,21.53
2017-08-25T07:14:23.035Z,21.46
2017-08-25T07:15:03.929Z,21.36
2017-08-25T07:15:44.308Z,21.26
2017-08-25T07:16:24.749Z,21.3
2017-08-25T07:17:05.944Z,21.24
2017-08-25T07:17:46.624Z,21.22
2017-08-25T07:27:33.178Z,22.09
2017-08-25T07:28:34.483Z,22.09
2017-08-25T07:29:33.729Z,22.06
2017-08-25T07:30:32.068Z,22.11
2017-08-25T07:31:29.987Z,22.15
2017-08-25T07:32:34.180Z,22.12
2017-08-25T07:33:34.244Z,22.26
2017-08-25T07:34:39.354Z,22.45
2017-08-25T07:35:39.627Z,22.49
2017-08-25T07:36:40.824Z,22.51
2017-08-25T07:37:50.090Z,22.57
2017-08-25T07:39:06.037Z,22.61
2017-08-25T07:40:21.578Z,22.79
2017-08-25T07:41:26.056Z,22.69
2017-08-25T07:42:21.230Z,22.75
2017-08-25T07:43:01.487Z,22.93
2017-08-25T07:43:41.903Z,22.93
2017-08-25T07:44:22.329Z,23
2017-08-25T07:45:02.753Z,23.03
2017-08-25T07:45:43.171Z,23.04
2017-08-25T07:46:23.598Z,22.99
2017-08-25T07:47:04.088Z,22.78
2017-08-25T07:47:44.508Z,22.94
2017-08-25T07:48:24.955Z,22.97
2017-08-25T07:49:05.403Z,22.89
2017-08-25T07:49:45.810Z,22.96
2017-08-25T07:50:26.250Z,22.99
2017-08-25T07:51:06.621Z,23.06
2017-08-25T07:51:47.073Z,23.18
2017-08-25T07:52:27.446Z,23.32
2017-08-25T07:53:07.887Z,23.44
2017-08-25T07:53:48.339Z,23.52
2017-08-25T07:54:28.790Z,23.57
2017-08-25T07:55:09.195Z,23.54
2017-08-25T07:55:49.654Z,23.68
2017-08-25T07:56:30.024Z,23.71
2017-08-25T07:57:10.515Z,23.75
2017-08-25T07:57:51.157Z,23.78
2017-08-25T07:58:31.600Z,23.77
2017-08-25T07:59:11.984Z,23.86
2017-08-25T07:59:52.364Z,23.93
2017-08-25T08:00:32.785Z,23.97
2017-08-25T08:01:13.199Z,24.04
2017-08-25T08:01:53.730Z,24.15
2017-08-25T08:02:34.167Z,24.09
2017-08-25T08:03:14.651Z,24.14
2017-08-25T08:03:55.132Z,24.12
2017-08-25T08:04:35.463Z,24.15
2017-08-25T08:05:15.848Z,24.23
2017-08-25T08:05:56.356Z,24.23
2017-08-25T08:06:36.765Z,24.23
2017-08-25T08:07:17.776Z,24.31
2017-08-25T08:07:58.036Z,24.37
2017-08-25T08:08:38.677Z,24.42
2017-08-25T08:09:19.282Z,24.53
2017-08-25T08:09:59.716Z,24.53
2017-08-25T08:10:40.196Z,24.61
2017-08-25T08:11:27.667Z,24.67
2017-08-25T08:12:07.100Z,24.55
2017-08-25T08:12:47.655Z,24.59
2017-08-25T08:13:28.136Z,24.61
2017-08-25T08:14:08.486Z,24.63
2017-08-25T08:14:48.986Z,24.67
2017-08-25T08:15:29.942Z,24.7
2017-08-25T08:16:10.303Z,24.77
2017-08-25T08:16:50.864Z,24.89
2017-08-25T08:17:31.696Z,25.01
2017-08-25T08:18:12.289Z,25.08
2017-08-25T08:18:53.744Z,25.04
2017-08-25T08:19:34.684Z,25.07
2017-08-25T08:20:16.456Z,25.04
2017-08-25T08:20:56.838Z,25.01
2017-08-25T08:21:37.699Z,24.97
2017-08-25T08:22:18.086Z,24.89
2017-08-25T08:22:58.478Z,24.86
2017-08-25T08:23:39.024Z,24.75
2017-08-25T08:24:19.560Z,24.83
2017-08-25T08:25:00.111Z,24.87
2017-08-25T08:25:42.627Z,24.89
2017-08-25T08:26:22.310Z,25.11
2017-08-25T08:27:02.753Z,24.87
2017-08-25T08:27:43.479Z,25.09
2017-08-25T08:28:23.927Z,25.22
2017-08-25T08:29:04.539Z,25.27
2017-08-25T08:29:44.796Z,25.2
2017-08-25T08:30:25.308Z,25.2
2017-08-25T08:31:05.780Z,25.27
2017-08-25T08:31:46.203Z,25.31
2017-08-25T08:32:29.226Z,25.26
2017-08-25T08:33:09.683Z,25.26
2017-08-25T08:33:51.686Z,25.2
2017-08-25T08:34:31.555Z,25.35
2017-08-25T08:35:11.947Z,25.34
2017-08-25T08:35:52.816Z,25.39
2017-08-25T08:36:32.935Z,25.48
2017-08-25T08:37:13.397Z,25.61
2017-08-25T08:37:53.889Z,25.75
2017-08-25T08:38:34.187Z,25.83
2017-08-25T08:39:14.654Z,26.12
2017-08-25T08:39:55.048Z,26.2
2017-08-25T08:40:35.494Z,26.47
2017-08-25T08:41:15.869Z,26.71
2017-08-25T08:41:56.310Z,26.86
2017-08-25T08:42:36.871Z,26.98
2017-08-25T08:43:17.246Z,26.98
2017-08-25T08:43:57.749Z,27.02
2017-08-25T08:44:38.148Z,27.12
2017-08-25T08:45:18.819Z,27.15
2017-08-25T08:45:59.262Z,27.2
2017-08-25T08:52:14.449Z,27.53
2017-08-25T08:53:27.500Z,27.59
2017-08-25T08:54:30.577Z,27.63
2017-08-25T08:55:57.687Z,27.69
2017-08-25T08:59:38.947Z,28.2
2017-08-25T09:01:57.566Z,28.46
2017-08-25T09:03:04.624Z,28.4
2017-08-25T09:04:06.015Z,28.35
2017-08-25T09:05:11.538Z,27.91
2017-08-25T09:06:17.546Z,27.78
2017-08-25T09:08:41.712Z,27.91
2017-08-25T09:10:11.387Z,28.08
2017-08-25T09:10:51.954Z,28.32
2017-08-25T09:11:32.605Z,28.48
2017-08-25T09:12:14.191Z,28.45
2017-08-25T09:12:55.993Z,28.52
2017-08-25T09:13:38.166Z,28.61
2017-08-25T09:14:19.017Z,28.64
2017-08-25T09:15:01.406Z,28.73
2017-08-25T09:15:42.615Z,28.72
2017-08-25T09:16:23.525Z,28.73
2017-08-25T09:17:04.252Z,28.73
2017-08-25T09:17:51.541Z,28.73
2017-08-25T09:18:31.818Z,28.45
2017-08-25T09:19:12.802Z,28.35
2017-08-25T09:19:53.867Z,28.3
2017-08-25T09:20:36.242Z,28.24
2017-08-25T09:21:16.992Z,28.18
2017-08-25T09:21:57.571Z,28.2
2017-08-25T09:22:37.892Z,28.21
2017-08-25T09:23:18.526Z,28.23
2017-08-25T09:24:01.390Z,28.28
2017-08-25T09:24:41.509Z,28.4
2017-08-25T09:25:22.293Z,28.54
2017-08-25T09:26:02.590Z,28.61
2017-08-25T09:26:43.474Z,28.7
2017-08-25T09:27:24.019Z,28.85
2017-08-25T09:28:04.996Z,28.95
2017-08-25T09:28:45.555Z,29.14
2017-08-25T09:29:26.090Z,29.21
2017-08-25T09:30:08.441Z,29.37
2017-08-25T09:30:49.814Z,29.44
2017-08-25T09:31:30.369Z,29.47
2017-08-25T09:32:11.806Z,29.6
2017-08-25T09:32:52.177Z,29.67
2017-08-25T09:33:32.643Z,29.79
2017-08-25T09:34:13.230Z,29.85
2017-08-25T09:34:54.522Z,29.94
2017-08-25T09:35:34.986Z,30.08
2017-08-25T09:36:15.390Z,30.08
2017-08-25T09:36:55.862Z,30.22
2017-08-25T09:37:36.358Z,30.29
2017-08-25T09:38:17.658Z,30.37
2017-08-25T09:38:58.065Z,30.38
2017-08-25T09:39:38.480Z,30.61
2017-08-25T09:40:19.007Z,30.7
2017-08-25T09:41:00.919Z,30.72
2017-08-25T09:41:41.247Z,30.73
2017-08-25T09:42:21.988Z,30.7
2017-08-25T09:43:02.409Z,30.63
2017-08-25T09:43:42.864Z,30.64
2017-08-25T09:44:23.241Z,30.78
2017-08-25T09:45:03.910Z,30.76
2017-08-25T09:45:44.327Z,30.86
2017-08-25T09:46:24.939Z,31
2017-08-25T09:47:05.485Z,31
2017-08-25T09:47:46.902Z,31
2017-08-25T09:48:27.467Z,30.86
2017-08-25T09:49:08.175Z,30.68
2017-08-25T09:49:48.744Z,30.76
2017-08-25T09:50:29.481Z,30.83
2017-08-25T09:51:10.062Z,30.85
2017-08-25T09:51:51.810Z,30.98
2017-08-25T09:52:33.690Z,31.01
2017-08-25T09:53:15.468Z,31.12
2017-08-25T09:53:55.148Z,31.16
2017-08-25T09:54:35.755Z,31.25
2017-08-25T09:55:17.642Z,31.16
2017-08-25T09:55:58.292Z,31.28
2017-08-25T09:56:38.679Z,31.35
2017-08-25T09:57:20.577Z,31.52
2017-08-25T09:58:04.646Z,31.59
2017-08-25T09:58:44.718Z,31.78
2017-08-25T09:59:25.700Z,31.65
2017-08-25T10:00:06.731Z,31.65
2017-08-25T10:00:47.502Z,31.62
2017-08-25T10:01:28.110Z,31.5
2017-08-25T10:02:09.202Z,31.23
2017-08-25T10:02:50.135Z,30.94
2017-08-25T10:03:30.619Z,30.76
2017-08-25T10:08:35.203Z,30.4
2017-08-25T10:12:11.128Z,30.63
2017-08-25T10:13:25.679Z,30.72
2017-08-25T10:15:37.789Z,30.97
2017-08-25T10:27:32.335Z,31.1
2017-08-25T10:28:14.972Z,31.18
2017-08-25T10:28:57.215Z,31.23
2017-08-25T10:29:37.362Z,31.38
2017-08-25T10:30:18.994Z,31.62
2017-08-25T10:30:59.332Z,31.75
2017-08-25T10:31:40.306Z,31.84
2017-08-25T10:32:21.054Z,31.91
2017-08-25T10:34:18.954Z,31.5
2017-08-25T10:35:01.361Z,31.32
2017-08-25T10:35:41.800Z,31.16
2017-08-25T10:36:22.556Z,30.79
2017-08-25T10:37:03.142Z,30.28
2017-08-25T10:37:43.485Z,30.25
2017-08-25T10:38:23.979Z,30.19
2017-08-25T10:39:04.442Z,30.22
2017-08-25T10:39:45.420Z,30.26
2017-08-25T10:40:26.529Z,30.23
2017-08-25T10:41:06.923Z,30.36
2017-08-25T10:41:47.390Z,30.57
2017-08-25T10:42:27.853Z,30.56
2017-08-25T10:43:08.318Z,30.7
2017-08-25T10:43:49.334Z,30.63